Saddle Brook, New Jersey
Current Conditions -  °F | °C
As of 4:51 AM on Sunday 23 Nov 2014 (Local Time) from KTEB Reporting Station
Overcast Overcast  
Wind Chill: 39°   Ceiling: 10000
Heat Index: 42°   Visibility: 10mi
Dew Point: 23°   Wind: 5mph
Humidity: 47%   Direction: 170°S
Pressure: 30.17"   Gusts: NA
Location:  40.9°N, 74.08°W
Report Text: KTEB 230951Z 17004KT 10SM OVC100 06/M05 A3017 RMK AO2 SLP217 T00561050
Loading
Personal Weather Stations






























Interactive Weather Map New forecast layout! Learn more

10-Day Weather Forecast

Advertisements
Track Severe Weather on mobile